Time;durP1;ratioP1;P1;durP2;ratioP2;P2;SDS_P1;SDS_P2;PMS_P1;PMS_P2;Temp;Humidity;BMP_temperature;BMP_pressure;BME280_temperature;BME280_humidity;BME280_pressure;Samples;Min_cycle;Max_cycle;Signal;HPM_P1;HPM_P2
2022/01/21 00:01:19;;;;;;;1.80;0.90;;;16.30;56.00;;;;;;5010885;28;20045;-60
2022/01/21 00:03:45;;;;;;;2.50;1.20;;;16.30;55.90;;;;;;5019504;28;20048;-65
2022/01/21 00:06:10;;;;;;;2.95;0.85;;;16.30;56.00;;;;;;5013407;28;20126;-62
2022/01/21 00:08:37;;;;;;;2.33;0.80;;;16.30;55.90;;;;;;5011319;28;20381;-60
2022/01/21 00:11:02;;;;;;;2.10;0.80;;;16.30;55.80;;;;;;5014857;28;20602;-61
2022/01/21 00:13:34;;;;;;;5.20;1.05;;;16.30;55.80;;;;;;5013310;28;20033;-60
2022/01/21 00:16:21;;;;;;;2.05;0.95;;;16.30;55.80;;;;;;5013740;28;20140;-60
2022/01/21 00:18:55;;;;;;;1.88;0.80;;;16.30;55.80;;;;;;5023852;28;20032;-59
2022/01/21 00:32:17;;;;;;;3.05;0.95;;;16.20;55.40;;;;;;5008557;28;20033;-60
2022/01/21 00:34:43;;;;;;;1.23;0.68;;;16.30;55.50;;;;;;5019903;28;20684;-60
2022/01/21 00:37:08;;;;;;;3.45;0.88;;;16.30;55.50;;;;;;5012917;28;20710;-59
2022/01/21 00:39:35;;;;;;;1.75;0.75;;;16.30;55.40;;;;;;5011601;28;20042;-59
2022/01/21 00:45:02;;;;;;;4.22;0.70;;;16.30;55.40;;;;;;4960997;28;20035;-60
2022/01/21 00:47:27;;;;;;;2.65;0.70;;;16.30;55.40;;;;;;5007320;28;20041;-61
2022/01/21 00:49:53;;;;;;;3.80;1.02;;;16.30;55.30;;;;;;5025870;28;20029;-60
2022/01/21 00:52:19;;;;;;;3.50;0.70;;;16.30;55.40;;;;;;5020681;28;20452;-61
2022/01/21 00:54:44;;;;;;;2.58;0.82;;;16.30;55.30;;;;;;5020885;28;20042;-61
2022/01/21 00:57:10;;;;;;;4.43;0.88;;;16.20;55.30;;;;;;5015371;28;20110;-61
2022/01/21 00:59:35;;;;;;;1.67;0.73;;;16.20;55.20;;;;;;5018500;28;20031;-61
2022/01/21 01:02:01;;;;;;;3.67;0.90;;;16.30;55.30;;;;;;5010065;28;20036;-62
2022/01/21 01:04:27;;;;;;;2.28;1.17;;;16.20;55.30;;;;;;5015287;28;20034;-61
2022/01/21 01:06:52;;;;;;;2.92;0.80;;;16.30;55.20;;;;;;5018322;28;20030;-61
2022/01/21 01:09:18;;;;;;;1.90;0.60;;;16.20;55.20;;;;;;5016996;28;20037;-61
2022/01/21 01:12:05;;;;;;;4.40;0.93;;;16.30;55.20;;;;;;5016423;28;20045;-60
2022/01/21 01:20:02;;;;;;;3.17;0.90;;;16.20;55.10;;;;;;5005949;28;20462;-63
2022/01/21 01:23:06;;;;;;;1.83;1.00;;;16.20;55.10;;;;;;5018687;28;20038;-62
2022/01/21 01:28:15;;;;;;;2.70;0.70;;;16.20;55.00;;;;;;4980868;28;20634;-62
2022/01/21 01:30:41;;;;;;;3.50;1.10;;;16.20;55.00;;;;;;4983920;28;20026;-62
2022/01/21 01:33:09;;;;;;;1.38;0.50;;;16.20;55.00;;;;;;4983247;28;20031;-61
2022/01/21 01:35:35;;;;;;;4.20;1.10;;;16.20;55.00;;;;;;4966141;28;20037;-62
2022/01/21 01:38:19;;;;;;;3.97;0.85;;;16.20;55.00;;;;;;4973510;28;20054;-61
2022/01/21 01:40:49;;;;;;;2.83;0.70;;;16.20;55.10;;;;;;4984204;28;20405;-63
2022/01/21 01:51:21;;;;;;;2.72;0.70;;;16.30;55.40;;;;;;4972378;28;20069;-63
2022/01/21 01:54:00;;;;;;;3.85;0.60;;;16.20;55.30;;;;;;4981773;28;20505;-63
2022/01/21 01:56:28;;;;;;;1.63;0.60;;;16.20;55.30;;;;;;4972143;28;20057;-63
2022/01/21 01:58:54;;;;;;;2.92;1.02;;;16.20;55.70;;;;;;4992264;28;20030;-62
2022/01/21 02:01:19;;;;;;;1.55;0.75;;;16.20;55.30;;;;;;4984634;28;20755;-63
2022/01/21 02:03:45;;;;;;;3.92;0.90;;;16.20;55.40;;;;;;4975049;28;20751;-63
2022/01/21 02:06:10;;;;;;;4.15;0.80;;;16.20;55.50;;;;;;4972747;28;20485;-62
2022/01/21 02:08:36;;;;;;;1.52;0.70;;;16.20;55.50;;;;;;4980545;28;20529;-62
2022/01/21 02:11:01;;;;;;;2.47;1.05;;;16.20;55.50;;;;;;4980089;28;20048;-63
2022/01/21 02:13:31;;;;;;;4.60;1.40;;;16.30;55.50;;;;;;4984161;28;20047;-62
2022/01/21 02:16:03;;;;;;;4.80;0.88;;;16.20;55.40;;;;;;4973760;28;20039;-62
2022/01/21 02:21:31;;;;;;;3.28;0.90;;;16.30;55.30;;;;;;4941355;28;20571;-61
2022/01/21 02:24:02;;;;;;;1.40;0.70;;;16.30;55.30;;;;;;4976521;28;20039;-62
2022/01/21 02:26:28;;;;;;;3.15;1.00;;;16.20;55.10;;;;;;4973128;28;20045;-62
2022/01/21 02:28:55;;;;;;;1.92;0.65;;;16.30;55.10;;;;;;4978603;28;20039;-63
2022/01/21 02:31:21;;;;;;;3.22;0.70;;;16.30;55.10;;;;;;4981393;28;20046;-63
2022/01/21 02:33:46;;;;;;;2.33;0.98;;;16.20;54.90;;;;;;4970743;28;20026;-63
2022/01/21 02:36:12;;;;;;;2.38;0.60;;;16.20;54.80;;;;;;4979345;28;20512;-62
2022/01/21 02:38:37;;;;;;;3.65;1.38;;;16.20;54.70;;;;;;4973047;28;20329;-62
2022/01/21 02:41:03;;;;;;;2.67;0.60;;;16.20;54.60;;;;;;4988253;28;20038;-62
2022/01/21 02:43:28;;;;;;;4.82;1.00;;;16.20;54.50;;;;;;4988503;28;20171;-63
2022/01/21 02:45:54;;;;;;;1.23;0.60;;;16.20;54.40;;;;;;4975622;28;20030;-63
2022/01/21 02:48:21;;;;;;;3.80;0.60;;;16.20;54.40;;;;;;4980776;28;20118;-62
2022/01/21 02:50:47;;;;;;;2.65;0.90;;;16.20;54.30;;;;;;4972883;28;20050;-63
2022/01/21 02:55:47;;;;;;;2.73;0.90;;;16.20;54.20;;;;;;4969079;28;20114;-63
2022/01/21 02:58:12;;;;;;;3.33;0.70;;;16.20;54.20;;;;;;4968578;28;20146;-62
2022/01/21 03:00:38;;;;;;;3.53;0.88;;;16.20;54.10;;;;;;4981274;28;20057;-62
2022/01/21 03:03:04;;;;;;;2.03;0.68;;;16.20;54.00;;;;;;4977076;28;20059;-63
2022/01/21 03:05:29;;;;;;;0.98;0.70;;;16.30;54.00;;;;;;4978875;28;20659;-63
2022/01/21 03:07:55;;;;;;;1.40;0.68;;;16.30;54.00;;;;;;4981330;28;20042;-63
2022/01/21 03:10:21;;;;;;;2.40;0.80;;;16.30;53.90;;;;;;4994013;28;20093;-62
2022/01/21 03:12:47;;;;;;;1.80;0.60;;;16.20;53.80;;;;;;4987694;28;20036;-62
2022/01/21 03:15:12;;;;;;;2.40;0.88;;;16.20;54.00;;;;;;4978362;28;20450;-62
2022/01/21 03:17:38;;;;;;;2.80;0.73;;;16.20;54.20;;;;;;4977235;28;20034;-62
2022/01/21 03:20:04;;;;;;;2.67;0.90;;;16.20;54.20;;;;;;4978368;28;20050;-62
2022/01/21 03:22:29;;;;;;;1.42;0.50;;;16.20;54.20;;;;;;4982421;28;20056;-62
2022/01/21 03:24:55;;;;;;;2.03;0.77;;;16.20;54.20;;;;;;4979835;28;20549;-62
2022/01/21 03:27:20;;;;;;;3.60;1.02;;;16.20;54.20;;;;;;4973664;28;20633;-62
2022/01/21 03:29:46;;;;;;;2.95;0.90;;;16.20;54.30;;;;;;4980695;28;20035;-62
2022/01/21 03:32:11;;;;;;;1.55;0.70;;;16.20;54.40;;;;;;4975590;28;20034;-62
2022/01/21 03:34:37;;;;;;;3.17;0.63;;;16.20;54.40;;;;;;4986812;28;20041;-62
2022/01/21 03:37:03;;;;;;;1.17;0.52;;;16.20;54.40;;;;;;4979839;28;20671;-62
2022/01/21 03:39:28;;;;;;;2.28;0.70;;;16.20;54.50;;;;;;4993933;28;20166;-62
2022/01/21 03:41:54;;;;;;;1.30;0.88;;;16.20;54.50;;;;;;4980917;28;20743;-62
2022/01/21 03:44:19;;;;;;;1.45;0.60;;;16.20;54.50;;;;;;4982793;28;20041;-63
2022/01/21 03:46:45;;;;;;;1.95;0.70;;;16.20;54.50;;;;;;4978635;28;22403;-63
2022/01/21 03:49:10;;;;;;;1.52;0.70;;;16.20;54.40;;;;;;4975584;28;20035;-63
2022/01/21 03:51:35;;;;;;;1.40;0.60;;;16.20;54.40;;;;;;4977983;28;20463;-62
2022/01/21 03:54:01;;;;;;;3.58;0.68;;;16.20;54.40;;;;;;4984028;28;20046;-61
2022/01/21 03:56:26;;;;;;;2.38;0.90;;;16.20;54.40;;;;;;4974559;28;20027;-63
2022/01/21 03:58:52;;;;;;;3.17;0.88;;;16.20;54.40;;;;;;4975040;28;20456;-63
2022/01/21 04:01:18;;;;;;;2.22;0.60;;;16.20;54.50;;;;;;4984343;28;20113;-62
2022/01/21 04:03:44;;;;;;;2.63;0.82;;;16.20;54.40;;;;;;4980874;28;20525;-63
2022/01/21 04:06:09;;;;;;;2.42;0.80;;;16.20;54.40;;;;;;4979277;28;20045;-61
2022/01/21 04:08:35;;;;;;;2.15;0.75;;;16.20;54.30;;;;;;4982314;28;20057;-63
2022/01/21 04:11:00;;;;;;;2.67;1.05;;;16.20;54.40;;;;;;4981188;28;20030;-62
2022/01/21 04:13:26;;;;;;;2.05;0.70;;;16.20;54.20;;;;;;4984389;28;20042;-63
2022/01/21 04:15:53;;;;;;;3.10;0.60;;;16.20;54.20;;;;;;4979540;28;20576;-62
2022/01/21 04:18:19;;;;;;;1.30;0.65;;;16.20;54.20;;;;;;4967483;28;20062;-63
2022/01/21 04:20:46;;;;;;;3.40;0.60;;;16.20;54.20;;;;;;4978962;28;20708;-62
2022/01/21 04:23:11;;;;;;;1.95;0.57;;;16.20;54.30;;;;;;4986695;28;20039;-63
2022/01/21 04:25:38;;;;;;;2.33;1.05;;;16.20;54.30;;;;;;4977989;28;20055;-63
2022/01/21 04:28:04;;;;;;;2.05;0.90;;;16.20;54.40;;;;;;4986344;28;20080;-61
2022/01/21 04:30:29;;;;;;;1.52;0.63;;;16.20;54.40;;;;;;4981904;28;20065;-62
2022/01/21 04:32:55;;;;;;;1.88;0.68;;;16.20;54.40;;;;;;4980739;28;20062;-62
2022/01/21 04:35:20;;;;;;;2.38;0.60;;;16.20;54.40;;;;;;4983450;28;20038;-63
2022/01/21 04:37:53;;;;;;;1.27;0.60;;;16.20;54.30;;;;;;4984965;28;20042;-63
2022/01/21 04:40:22;;;;;;;2.08;0.80;;;16.20;54.30;;;;;;4979934;28;20041;-62
2022/01/21 04:48:15;;;;;;;1.55;0.40;;;16.20;54.10;;;;;;4967189;28;20109;-62
2022/01/21 04:50:53;;;;;;;4.22;0.63;;;16.20;54.00;;;;;;4980577;28;20034;-63
2022/01/21 04:53:18;;;;;;;1.85;0.50;;;16.20;54.00;;;;;;4972967;28;20038;-62
2022/01/21 04:55:44;;;;;;;1.48;0.57;;;16.20;53.90;;;;;;4974934;28;20405;-62
2022/01/21 04:58:09;;;;;;;1.88;0.68;;;16.20;53.80;;;;;;4974347;28;20399;-61
2022/01/21 05:00:35;;;;;;;2.95;0.80;;;16.20;53.80;;;;;;4970159;28;20514;-63
2022/01/21 05:03:00;;;;;;;1.02;0.57;;;16.20;53.80;;;;;;4978987;28;20042;-62
2022/01/21 05:05:26;;;;;;;1.65;0.70;;;16.20;53.70;;;;;;4975210;28;20094;-62
2022/01/21 05:07:53;;;;;;;2.35;0.60;;;16.20;53.60;;;;;;4970221;28;20683;-62
2022/01/21 05:10:18;;;;;;;3.58;0.82;;;16.20;53.60;;;;;;4978730;28;20038;-62
2022/01/21 05:12:44;;;;;;;3.20;0.93;;;16.10;53.50;;;;;;4981282;28;20032;-63
2022/01/21 05:15:17;;;;;;;1.55;0.60;;;16.10;53.40;;;;;;4981841;28;20061;-62
2022/01/21 05:17:48;;;;;;;1.98;0.60;;;16.10;53.40;;;;;;4984627;28;20031;-62
2022/01/21 05:20:13;;;;;;;1.30;0.60;;;16.10;53.30;;;;;;4980207;28;20034;-62
2022/01/21 05:22:39;;;;;;;2.05;0.82;;;16.10;53.30;;;;;;4968077;28;20031;-63
2022/01/21 05:25:05;;;;;;;1.25;0.65;;;16.20;53.40;;;;;;4975062;28;20093;-63
2022/01/21 05:27:30;;;;;;;2.08;0.70;;;16.10;53.40;;;;;;4973681;28;20045;-63
2022/01/21 05:29:56;;;;;;;2.45;0.57;;;16.10;53.50;;;;;;4985559;28;20046;-62
2022/01/21 05:32:21;;;;;;;2.30;0.60;;;16.10;53.50;;;;;;4974781;28;20038;-62
2022/01/21 05:34:47;;;;;;;3.80;0.68;;;16.10;53.50;;;;;;4974125;28;20096;-63
2022/01/21 05:37:12;;;;;;;1.80;0.70;;;16.10;53.40;;;;;;4982931;28;20416;-63
2022/01/21 05:39:38;;;;;;;2.92;0.73;;;16.10;53.50;;;;;;4970489;28;20041;-61
2022/01/21 05:42:05;;;;;;;1.40;0.65;;;16.10;53.50;;;;;;4982001;28;20043;-63
2022/01/21 05:46:59;;;;;;;1.60;0.63;;;16.10;53.60;;;;;;4984431;28;20454;-62
2022/01/21 05:49:26;;;;;;;2.28;0.60;;;16.10;53.60;;;;;;4978151;28;20038;-63
2022/01/21 05:51:54;;;;;;;3.15;0.77;;;16.10;53.60;;;;;;4975244;28;20585;-63
2022/01/21 05:54:24;;;;;;;2.08;0.80;;;16.10;53.70;;;;;;4988604;28;20026;-63
2022/01/21 05:56:50;;;;;;;5.25;0.60;;;16.00;53.70;;;;;;4985709;28;20045;-63
2022/01/21 05:59:15;;;;;;;3.20;0.88;;;16.10;53.80;;;;;;4988996;28;20042;-63
2022/01/21 06:01:41;;;;;;;1.48;0.60;;;16.10;53.80;;;;;;4985863;28;20031;-62
2022/01/21 06:04:06;;;;;;;2.10;0.93;;;16.10;53.80;;;;;;4978482;28;20040;-62
2022/01/21 06:06:32;;;;;;;1.52;0.65;;;16.10;53.80;;;;;;4973901;28;20030;-61
2022/01/21 06:08:57;;;;;;;1.83;0.80;;;16.10;53.90;;;;;;4983289;28;20026;-62
2022/01/21 06:11:23;;;;;;;1.80;0.70;;;16.10;54.00;;;;;;4987917;28;20409;-62
2022/01/21 06:13:50;;;;;;;3.70;0.88;;;16.10;54.00;;;;;;4985543;28;20041;-63
2022/01/21 06:16:17;;;;;;;3.88;1.02;;;16.10;54.10;;;;;;4978840;28;20115;-63
2022/01/21 06:18:42;;;;;;;1.88;0.70;;;16.10;54.20;;;;;;4982536;28;20512;-61
2022/01/21 06:21:08;;;;;;;6.60;3.05;;;16.10;54.20;;;;;;4985180;28;20039;-60
2022/01/21 06:23:33;;;;;;;11.00;3.83;;;16.10;54.30;;;;;;4982668;28;20106;-61
2022/01/21 06:25:59;;;;;;;10.45;4.30;;;16.10;54.40;;;;;;4979634;28;20042;-62
2022/01/21 06:28:25;;;;;;;7.05;3.42;;;16.10;54.60;;;;;;4980285;28;20444;-61
2022/01/21 06:30:50;;;;;;;8.40;4.50;;;16.10;54.60;;;;;;4989298;28;20030;-62
2022/01/21 06:33:16;;;;;;;12.25;4.45;;;16.00;54.70;;;;;;4979492;28;20037;-61
2022/01/21 06:35:41;;;;;;;9.43;4.70;;;16.00;54.70;;;;;;4978337;28;20426;-61
2022/01/21 06:38:07;;;;;;;12.07;4.55;;;16.10;55.00;;;;;;4979994;28;20672;-62
2022/01/21 06:40:32;;;;;;;10.40;4.50;;;16.00;55.10;;;;;;4980280;28;20110;-61
2022/01/21 06:43:02;;;;;;;9.07;5.03;;;16.00;55.10;;;;;;4980810;28;20023;-61
2022/01/21 06:45:27;;;;;;;10.35;4.10;;;16.00;55.10;;;;;;4971681;28;20027;-61
2022/01/21 06:47:53;;;;;;;7.70;3.97;;;16.00;55.10;;;;;;4987430;28;20080;-61
2022/01/21 06:50:18;;;;;;;10.95;5.28;;;16.00;55.00;;;;;;4980565;28;20042;-61
2022/01/21 06:52:44;;;;;;;11.73;5.70;;;16.00;54.90;;;;;;4975839;28;20033;-62
2022/01/21 06:55:09;;;;;;;12.48;4.22;;;16.00;54.80;;;;;;4973071;28;20046;-56
2022/01/21 06:57:38;;;;;;;10.50;4.10;;;16.10;54.80;;;;;;4986871;28;20054;-62
2022/01/21 07:00:05;;;;;;;14.25;4.05;;;16.00;54.70;;;;;;4983482;28;20146;-61
2022/01/21 07:02:31;;;;;;;14.55;4.07;;;16.00;54.60;;;;;;4982700;28;20701;-61
2022/01/21 07:04:56;;;;;;;14.57;4.82;;;16.00;54.50;;;;;;4975745;28;20023;-63
2022/01/21 07:07:22;;;;;;;14.80;3.97;;;16.00;54.40;;;;;;4984750;28;20031;-61
2022/01/21 07:09:47;;;;;;;15.52;3.67;;;16.00;54.40;;;;;;4980870;28;20031;-61
2022/01/21 07:12:13;;;;;;;12.13;4.35;;;16.00;54.40;;;;;;4980852;28;20501;-63
2022/01/21 07:14:38;;;;;;;9.80;3.95;;;16.00;54.40;;;;;;4979064;28;20145;-61
2022/01/21 07:17:04;;;;;;;12.18;3.67;;;16.00;54.30;;;;;;4979468;28;20026;-62
2022/01/21 07:19:30;;;;;;;9.68;3.80;;;16.10;54.40;;;;;;4976745;28;20084;-60
2022/01/21 07:21:56;;;;;;;9.13;3.95;;;16.00;54.40;;;;;;4975392;28;20170;-61
2022/01/21 07:24:21;;;;;;;14.55;6.43;;;16.00;54.40;;;;;;4987351;28;20058;-61
2022/01/21 07:26:47;;;;;;;15.63;6.35;;;16.00;54.50;;;;;;4975417;28;20027;-61
2022/01/21 07:29:12;;;;;;;14.20;5.35;;;16.10;54.50;;;;;;4978892;28;20031;-61
2022/01/21 07:31:38;;;;;;;17.45;6.18;;;16.00;54.50;;;;;;4969298;28;20031;-61
2022/01/21 07:34:06;;;;;;;13.75;5.88;;;16.00;54.40;;;;;;4976481;28;20066;-61
2022/01/21 07:36:32;;;;;;;10.70;5.43;;;16.00;54.40;;;;;;4986059;28;20090;-61
2022/01/21 07:38:58;;;;;;;15.50;5.40;;;16.00;54.40;;;;;;4972960;28;20042;-61
2022/01/21 07:41:23;;;;;;;12.20;5.45;;;16.00;54.40;;;;;;4978901;28;20456;-60
2022/01/21 07:43:49;;;;;;;18.10;7.15;;;16.00;54.40;;;;;;4977681;28;20023;-61
2022/01/21 07:46:15;;;;;;;24.85;9.85;;;16.00;54.50;;;;;;4978801;28;20069;-62
2022/01/21 07:48:41;;;;;;;18.38;8.07;;;16.00;54.60;;;;;;4985654;28;20077;-62
2022/01/21 07:51:06;;;;;;;21.10;9.13;;;16.00;54.70;;;;;;4968044;28;20037;-62
2022/01/21 07:53:32;;;;;;;19.30;7.90;;;16.00;55.10;;;;;;4974269;28;20568;-62
2022/01/21 07:55:57;;;;;;;21.35;7.85;;;16.00;55.10;;;;;;4978724;28;20026;-61
2022/01/21 07:58:23;;;;;;;19.98;8.65;;;16.00;55.40;;;;;;4982633;28;20089;-61
2022/01/21 08:00:48;;;;;;;19.08;7.78;;;16.00;56.10;;;;;;4987160;28;20085;-62
2022/01/21 08:03:15;;;;;;;20.65;7.95;;;16.00;55.30;;;;;;4988388;28;20050;-61
2022/01/21 08:05:42;;;;;;;18.50;7.43;;;16.00;55.10;;;;;;4987567;28;20026;-62
2022/01/21 08:08:08;;;;;;;17.42;7.25;;;16.00;55.00;;;;;;4980782;28;20046;-62
2022/01/21 08:10:33;;;;;;;16.95;7.45;;;16.00;55.00;;;;;;4975662;28;20054;-62
2022/01/21 08:13:00;;;;;;;14.90;7.25;;;15.90;54.80;;;;;;4980550;28;20061;-61
2022/01/21 08:15:26;;;;;;;24.15;7.25;;;15.90;54.80;;;;;;4977136;28;20027;-61
2022/01/21 08:17:52;;;;;;;17.00;6.25;;;15.90;54.80;;;;;;4980612;28;22763;-61
2022/01/21 08:20:17;;;;;;;19.65;6.20;;;15.90;54.70;;;;;;4980107;28;20114;-61
2022/01/21 08:22:43;;;;;;;19.88;5.97;;;15.90;54.60;;;;;;4982263;28;20027;-62
2022/01/21 08:25:08;;;;;;;13.30;5.63;;;15.90;54.40;;;;;;4971412;28;20034;-61
2022/01/21 08:27:35;;;;;;;14.38;5.60;;;15.90;54.40;;;;;;4971387;28;20552;-62
2022/01/21 08:30:00;;;;;;;16.23;5.55;;;15.90;54.30;;;;;;4982700;28;20026;-61
2022/01/21 08:32:26;;;;;;;14.63;5.95;;;15.90;54.20;;;;;;4977510;28;20263;-62
2022/01/21 08:34:51;;;;;;;11.82;4.90;;;15.90;54.20;;;;;;4967386;28;21461;-62
2022/01/21 08:37:18;;;;;;;12.35;5.07;;;15.90;54.20;;;;;;4979085;28;20125;-61
2022/01/21 08:39:43;;;;;;;17.17;8.38;;;15.90;54.20;;;;;;4982830;28;20098;-61
2022/01/21 08:42:09;;;;;;;21.30;9.40;;;15.90;54.60;;;;;;4975393;28;20030;-61
2022/01/21 08:44:35;;;;;;;19.73;9.50;;;15.90;55.00;;;;;;4979128;28;20529;-61
2022/01/21 08:47:00;;;;;;;22.20;9.38;;;15.90;55.40;;;;;;4984122;28;20061;-61
2022/01/21 08:49:26;;;;;;;23.55;8.77;;;15.90;55.50;;;;;;4981006;28;20029;-61
2022/01/21 08:51:54;;;;;;;20.63;8.52;;;15.90;55.80;;;;;;4981332;28;20101;-62
2022/01/21 08:54:20;;;;;;;24.45;8.40;;;15.90;55.90;;;;;;4979696;28;20505;-61
2022/01/21 08:56:46;;;;;;;22.05;8.50;;;15.90;56.10;;;;;;4978859;28;20057;-62
2022/01/21 08:59:12;;;;;;;18.40;7.63;;;15.90;56.10;;;;;;4974085;28;20110;-61
2022/01/21 09:01:37;;;;;;;16.92;8.02;;;15.90;56.30;;;;;;4980307;28;20138;-62
2022/01/21 09:04:03;;;;;;;17.38;6.93;;;15.90;56.30;;;;;;4981639;28;20105;-63
2022/01/21 09:06:29;;;;;;;16.60;7.32;;;15.90;56.60;;;;;;4980693;28;20031;-61
2022/01/21 09:08:56;;;;;;;17.67;6.90;;;15.90;56.60;;;;;;4976574;28;20019;-61
2022/01/21 09:11:21;;;;;;;22.65;6.97;;;15.90;56.60;;;;;;4971465;28;20666;-62
2022/01/21 09:13:47;;;;;;;14.80;6.65;;;15.90;56.80;;;;;;4970915;28;20077;-61
2022/01/21 09:16:12;;;;;;;14.93;6.22;;;15.90;56.70;;;;;;4990295;28;20022;-61
2022/01/21 09:18:45;;;;;;;13.55;6.45;;;15.90;56.70;;;;;;4981158;28;20039;-62
2022/01/21 09:21:15;;;;;;;10.00;5.03;;;15.90;56.80;;;;;;4979025;28;20186;-62
2022/01/21 09:23:41;;;;;;;15.55;6.85;;;15.90;56.90;;;;;;4974752;28;20038;-62
2022/01/21 09:26:10;;;;;;;13.23;5.63;;;15.90;57.00;;;;;;4980878;28;20030;-61
2022/01/21 09:28:35;;;;;;;14.98;6.32;;;15.90;56.90;;;;;;4978865;28;20062;-61
2022/01/21 09:31:01;;;;;;;11.43;5.20;;;15.90;57.60;;;;;;4980760;28;20121;-61
2022/01/21 09:33:26;;;;;;;11.80;5.05;;;15.90;57.00;;;;;;4998466;28;20505;-61
2022/01/21 09:35:52;;;;;;;14.63;5.10;;;15.90;57.00;;;;;;4978957;28;20039;-61
2022/01/21 09:38:17;;;;;;;11.25;4.88;;;15.90;56.80;;;;;;4973402;28;20038;-61
2022/01/21 09:40:45;;;;;;;10.85;4.70;;;15.90;56.70;;;;;;4982187;28;20026;-61
2022/01/21 09:43:10;;;;;;;12.23;4.72;;;15.90;56.70;;;;;;4984405;28;20092;-61
2022/01/21 09:45:37;;;;;;;11.98;4.57;;;15.90;56.60;;;;;;4984951;28;20034;-60
2022/01/21 09:48:05;;;;;;;10.38;4.90;;;15.90;56.60;;;;;;4986004;28;20038;-62
2022/01/21 09:50:32;;;;;;;9.90;4.60;;;15.90;56.60;;;;;;4988544;28;20165;-62
2022/01/21 09:52:57;;;;;;;14.38;4.75;;;15.90;56.50;;;;;;4968467;28;20046;-61
2022/01/21 09:55:23;;;;;;;11.55;4.65;;;15.90;56.50;;;;;;4983443;28;20556;-60
2022/01/21 09:57:50;;;;;;;9.82;4.10;;;15.90;56.40;;;;;;4987845;28;20097;-61
2022/01/21 10:00:16;;;;;;;8.95;4.28;;;15.90;56.50;;;;;;4982095;28;20493;-62
2022/01/21 10:02:42;;;;;;;11.35;4.25;;;15.90;56.40;;;;;;4985481;28;20043;-61
2022/01/21 10:05:08;;;;;;;10.95;3.80;;;15.90;56.40;;;;;;4989460;28;20082;-61
2022/01/21 10:07:34;;;;;;;9.63;4.00;;;15.90;56.40;;;;;;4980278;28;20038;-62
2022/01/21 10:10:06;;;;;;;9.00;4.03;;;15.90;56.40;;;;;;4990638;28;20113;-62
2022/01/21 10:12:31;;;;;;;10.52;3.47;;;15.90;56.40;;;;;;4983585;28;20390;-62
2022/01/21 10:14:57;;;;;;;7.18;3.42;;;15.90;56.40;;;;;;4970149;28;20031;-62
2022/01/21 10:17:22;;;;;;;10.65;3.83;;;15.90;56.50;;;;;;4971283;28;20129;-62
2022/01/21 10:19:51;;;;;;;8.27;3.03;;;15.90;56.40;;;;;;4976631;28;20375;-61
2022/01/21 10:22:19;;;;;;;7.25;3.47;;;15.90;56.40;;;;;;4971135;28;20059;-61
2022/01/21 10:24:58;;;;;;;7.53;3.60;;;15.90;56.50;;;;;;4994544;28;20645;-60
2022/01/21 10:27:35;;;;;;;6.85;3.00;;;15.90;56.60;;;;;;4984768;28;20467;-60
2022/01/21 10:30:00;;;;;;;7.60;3.20;;;15.90;56.80;;;;;;4969660;28;20031;-61
2022/01/21 10:32:39;;;;;;;13.02;3.15;;;16.00;57.10;;;;;;4978076;28;20027;-61
2022/01/21 10:35:39;;;;;;;4.65;2.75;;;16.00;57.90;;;;;;4978259;28;20024;-61
2022/01/21 10:38:30;;;;;;;6.93;2.90;;;16.00;59.10;;;;;;4957318;28;20041;-61
2022/01/21 10:41:05;;;;;;;8.07;2.53;;;16.00;59.30;;;;;;4982897;28;20037;-60
2022/01/21 10:43:31;;;;;;;;;;;16.00;59.30;;;;;;4966776;28;20031;-60
2022/01/21 10:45:58;;;;;;;8.35;2.60;;;16.00;59.30;;;;;;4986710;28;20296;-60
2022/01/21 10:48:50;;;;;;;4.20;2.45;;;16.00;59.20;;;;;;4969666;28;20034;-61
2022/01/21 10:51:22;;;;;;;7.13;2.97;;;16.00;59.30;;;;;;4974154;28;20545;-60
2022/01/21 10:53:48;;;;;;;7.28;2.67;;;16.00;59.10;;;;;;4995312;28;20034;-60
2022/01/21 10:56:18;;;;;;;6.90;2.35;;;16.00;59.70;;;;;;4984158;28;20034;-61
2022/01/21 10:58:45;;;;;;;7.10;2.65;;;16.00;58.90;;;;;;4984942;28;20039;-60
2022/01/21 11:01:17;;;;;;;6.70;2.30;;;16.00;58.70;;;;;;4974145;28;20031;-60
2022/01/21 11:04:06;;;;;;;6.97;2.38;;;16.00;58.60;;;;;;4997390;28;20085;-60
2022/01/21 11:06:42;;;;;;;7.00;2.63;;;16.00;58.50;;;;;;4988081;28;20121;-60
2022/01/21 11:09:17;;;;;;;6.88;2.50;;;16.00;58.40;;;;;;4981260;28;20035;-61
2022/01/21 11:11:48;;;;;;;3.95;1.95;;;15.90;58.30;;;;;;4969259;28;20085;-60
2022/01/21 11:14:15;;;;;;;9.77;2.17;;;16.00;58.20;;;;;;4981839;28;20406;-61
2022/01/21 11:16:44;;;;;;;7.57;2.08;;;16.00;58.20;;;;;;4978314;28;20041;-60
2022/01/21 11:19:14;;;;;;;3.92;2.20;;;16.00;58.10;;;;;;4969796;28;20030;-59
2022/01/21 11:21:43;;;;;;;3.38;1.92;;;16.00;58.00;;;;;;4985873;28;20068;-61
2022/01/21 11:24:09;;;;;;;6.57;2.03;;;15.90;57.90;;;;;;4972491;28;20030;-61
2022/01/21 11:26:34;;;;;;;5.03;2.40;;;16.00;57.90;;;;;;4988376;28;20092;-60
2022/01/21 11:29:00;;;;;;;4.63;2.35;;;15.90;57.80;;;;;;4987003;28;20022;-61
2022/01/21 11:31:28;;;;;;;4.18;2.20;;;15.90;57.70;;;;;;4986921;28;20035;-61
2022/01/21 11:33:53;;;;;;;4.55;2.28;;;15.90;57.70;;;;;;4980360;28;20042;-61
2022/01/21 11:36:19;;;;;;;4.43;1.83;;;15.90;57.60;;;;;;4976383;28;20023;-61
2022/01/21 11:38:45;;;;;;;4.55;1.92;;;15.90;57.70;;;;;;4982687;28;20405;-61
2022/01/21 11:41:11;;;;;;;8.60;2.47;;;15.90;57.60;;;;;;4983452;28;20081;-60
2022/01/21 11:43:38;;;;;;;4.63;1.77;;;15.90;57.60;;;;;;4981202;28;20038;-59
2022/01/21 11:46:20;;;;;;;7.15;2.25;;;15.90;57.60;;;;;;4977233;28;20027;-61
2022/01/21 11:48:56;;;;;;;3.55;1.80;;;15.90;57.60;;;;;;4983286;28;20406;-61
2022/01/21 11:51:33;;;;;;;4.47;1.70;;;15.90;57.60;;;;;;4973468;28;20042;-61
2022/01/21 11:54:06;;;;;;;5.80;1.90;;;15.90;57.70;;;;;;4982056;28;20171;-61
2022/01/21 11:56:48;;;;;;;4.78;2.00;;;15.90;57.70;;;;;;4985385;28;20091;-61
2022/01/21 11:59:33;;;;;;;5.20;1.80;;;15.90;57.70;;;;;;4979649;28;20027;-61
2022/01/21 12:02:19;;;;;;;3.38;1.70;;;15.90;57.70;;;;;;4981116;28;20049;-60
2022/01/21 12:04:47;;;;;;;4.30;1.80;;;15.90;57.70;;;;;;4983749;28;20034;-60
2022/01/21 12:07:35;;;;;;;2.72;1.50;;;15.90;57.70;;;;;;4969270;28;20038;-61
2022/01/21 12:10:04;;;;;;;5.38;1.85;;;15.90;57.80;;;;;;4981402;28;20030;-57
2022/01/21 12:12:54;;;;;;;6.15;1.58;;;15.90;57.90;;;;;;4978396;28;20037;-60
2022/01/21 12:15:30;;;;;;;2.72;1.40;;;15.90;58.00;;;;;;4974441;28;20031;-60
2022/01/21 12:20:57;;;;;;;3.60;1.48;;;15.90;58.20;;;;;;5017628;28;20064;-67
2022/01/21 12:23:25;;;;;;;2.45;1.33;;;15.90;58.20;;;;;;5019350;28;20025;-67
2022/01/21 12:26:09;;;;;;;3.72;1.48;;;15.90;58.30;;;;;;5020278;28;20025;-67
2022/01/21 12:28:44;;;;;;;4.07;1.50;;;15.90;58.30;;;;;;5014464;28;20030;-67
2022/01/21 12:31:11;;;;;;;5.93;2.08;;;15.90;58.30;;;;;;5011931;28;20600;-68
2022/01/21 12:33:53;;;;;;;6.10;1.60;;;15.90;58.30;;;;;;5012494;28;20539;-67
2022/01/21 12:36:19;;;;;;;2.53;1.65;;;15.90;58.30;;;;;;5015053;28;20022;-67
2022/01/21 12:41:16;;;;;;;3.72;1.67;;;15.90;58.30;;;;;;5006814;28;20034;-67
2022/01/21 12:43:48;;;;;;;3.65;1.23;;;15.90;58.20;;;;;;5016795;28;20034;-68
2022/01/21 12:46:23;;;;;;;3.95;1.30;;;15.90;58.10;;;;;;5006510;28;20045;-70
2022/01/21 12:48:49;;;;;;;3.22;1.98;;;15.90;58.10;;;;;;5013561;28;20049;-67
2022/01/21 12:51:20;;;;;;;3.90;1.10;;;15.90;58.00;;;;;;5025031;28;20029;-68
2022/01/21 12:56:45;;;;;;;4.40;1.40;;;15.90;57.90;;;;;;5017024;28;20120;-68
2022/01/21 12:59:24;;;;;;;4.82;1.60;;;16.00;57.90;;;;;;5012909;28;20075;-68
2022/01/21 13:01:50;;;;;;;4.88;1.38;;;15.90;57.80;;;;;;5016190;28;20627;-68
2022/01/21 13:04:36;;;;;;;2.67;1.10;;;15.90;57.80;;;;;;5017898;28;20117;-68
2022/01/21 13:07:08;;;;;;;2.47;0.95;;;16.00;57.90;;;;;;5010472;28;20571;-67
2022/01/21 13:10:01;;;;;;;3.17;1.23;;;15.90;57.80;;;;;;5016958;28;20029;-66
2022/01/21 13:12:58;;;;;;;4.93;1.65;;;15.90;57.80;;;;;;5010257;28;20054;-68
2022/01/21 13:15:44;;;;;;;2.40;1.13;;;15.90;57.80;;;;;;4994181;28;20516;-66
2022/01/21 13:18:22;;;;;;;2.42;1.23;;;15.90;57.80;;;;;;5012974;28;20053;-67
2022/01/21 13:20:49;;;;;;;1.73;0.90;;;15.90;57.90;;;;;;5009048;28;20030;-64
2022/01/21 13:23:30;;;;;;;6.38;1.42;;;15.90;57.90;;;;;;5020539;28;20059;-66
2022/01/21 13:26:15;;;;;;;2.95;1.23;;;16.00;57.90;;;;;;5013451;28;20037;-63
2022/01/21 13:29:42;;;;;;;3.05;1.10;;;15.90;57.90;;;;;;5011358;28;20113;-66
2022/01/21 13:32:07;;;;;;;2.20;1.05;;;15.90;58.00;;;;;;4932092;28;20146;-65
2022/01/21 13:34:36;;;;;;;2.28;1.00;;;15.90;57.90;;;;;;4937773;28;20038;-63
2022/01/21 13:37:05;;;;;;;3.00;1.10;;;15.90;58.00;;;;;;4986567;28;20099;-62
2022/01/21 13:39:35;;;;;;;3.92;1.20;;;15.90;58.00;;;;;;5013069;28;20441;-63
2022/01/21 13:42:06;;;;;;;1.85;0.80;;;15.90;58.30;;;;;;5014047;28;20032;-64
2022/01/21 13:45:11;;;;;;;3.22;1.10;;;15.90;58.50;;;;;;5019408;28;20018;-63